Kimberly Jane — WDF9115 — position and weather

sailwx.info

Track history (hours):
 
Tides and Currents Weather Stations Pressure Air Temp Water Temp Dewpoint Dewpoint Depression Visibility Wind Speed Wind Dir Waves Ship Positions

Kimberly Jane

Owner: Kirby Inland Marine LP, Houston, TX. More information available from US FCC via Universal Licensing System and Coast Guard Vessel Documentation Center.

Last reported at 2017-Sep-05 21:03 UTC. Time now 2017-Sep-22 20:54 UTC.
Position N 38°58' W 090°33'.
Warning: this ship's position is 16 days out of date.

Length 211 m; draft 2.7 m.

Type: . MMSI: 367501920.

Date/timePositionNaut miles runAvg speedWind from/ knotsBaromVisibWave heightAir tempDewpointWater temp
2017-Sep-05 21:03N 38°58' W 090°33'0 6.6
2017-Sep-05 21:00N 38°58' W 090°33'2 4.7
2017-Sep-05 20:30N 38°58' W 090°30'3 5.5
2017-Sep-05 20:00N 38°58' W 090°26'3 5.4
2017-Sep-05 19:30N 38°57' W 090°23'3 6.2
2017-Sep-05 19:00N 38°56' W 090°20'  
2017-Aug-29 18:15N 32°37' W 091°09'1 4.9
2017-Aug-29 18:00N 32°36' W 091°08'2 4.5
2017-Aug-29 17:30N 32°35' W 091°07'2 3.8
2017-Aug-29 16:56N 32°32' W 091°06'2 4.8
2017-Aug-29 16:28N 32°30' W 091°07'2 4.7
2017-Aug-29 16:00N 32°28' W 091°06'2 4.8
2017-Aug-29 15:30N 32°27' W 091°04'2 4.6
2017-Aug-29 15:00N 32°26' W 091°01'2 3.9
2017-Aug-29 14:30N 32°25' W 090°60'2 4.1
2017-Aug-29 14:00N 32°23' W 091°00'2 3.8
2017-Aug-29 13:30N 32°21' W 090°59'2 4.8
2017-Aug-29 13:00N 32°21' W 090°56'2 3.9
2017-Aug-29 12:30N 32°20' W 090°54'2 4.5
2017-Aug-29 12:00N 32°18' W 090°55'0 0.2
2017-Aug-29 11:30N 32°18' W 090°55'0 0.0
2017-Aug-29 11:00N 32°18' W 090°55'0 0.0
2017-Aug-29 10:30N 32°18' W 090°55'0 0.0
2017-Aug-29 10:00N 32°18' W 090°55'0 0.0
2017-Aug-29 09:30N 32°18' W 090°55'0 0.0
2017-Aug-29 09:00N 32°18' W 090°55'0 0.0
2017-Aug-29 08:30N 32°18' W 090°55'0 0.5
2017-Aug-29 08:00N 32°18' W 090°56'2 4.7
2017-Aug-29 07:30N 32°16' W 090°58'2 3.3
2017-Aug-29 07:00N 32°15' W 090°59'2 4.8
2017-Aug-29 06:30N 32°13' W 090°59'2 4.3
2017-Aug-29 06:00N 32°10' W 090°60'2 4.2
2017-Aug-29 05:30N 32°08' W 091°00'2 3.9
2017-Aug-29 05:00N 32°07' W 091°02'3 4.9
2017-Aug-29 04:25N 32°08' W 091°05'1 3.5
2017-Aug-29 04:00N 32°07' W 091°06'4 3.4
2017-Aug-29 02:43N 32°03' W 091°03'1 5.8
2017-Aug-29 02:29N 32°02' W 091°04'142 2.9
2017-Aug-27 01:33N 29°49' W 092°02'0 5.2
2017-Aug-27 01:30N 29°49' W 092°03'3 5.2
2017-Aug-27 01:00N 29°48' W 092°05'3 5.4
2017-Aug-27 00:30N 29°47' W 092°08'2 5.0
2017-Aug-27 00:00N 29°47' W 092°11'1 2.6
2017-Aug-26 23:30N 29°47' W 092°13'2 3.1
2017-Aug-26 23:01N 29°48' W 092°14'0 0.2
2017-Aug-26 22:30N 29°48' W 092°14'0 0.0
2017-Aug-26 22:00N 29°48' W 092°14'0 0.0
2017-Aug-26 21:30N 29°48' W 092°14'  
Track history (hours):
 
Tides and Currents Weather Stations Pressure Air Temp Water Temp Dewpoint Dewpoint Depression Visibility Wind Speed Wind Dir Waves Ship Positions

Kimberly Jane

Owner: Kirby Inland Marine LP, Houston, TX. More information available from US FCC via Universal Licensing System and Coast Guard Vessel Documentation Center.

Last reported at 2017-Sep-05 21:03 UTC. Time now 2017-Sep-22 20:54 UTC.
Position N 38°58' W 090°33'.
Warning: this ship's position is 16 days out of date.

Length 211 m; draft 2.7 m.

Type: . MMSI: 367501920.

Date/timePositionNaut miles runAvg speedWind from/ knotsBaromVisibWave heightAir tempDewpointWater temp
2017-Sep-05 21:03N 38°58' W 090°33'0 6.6
2017-Sep-05 21:00N 38°58' W 090°33'2 4.7
2017-Sep-05 20:30N 38°58' W 090°30'3 5.5
2017-Sep-05 20:00N 38°58' W 090°26'3 5.4
2017-Sep-05 19:30N 38°57' W 090°23'3 6.2
2017-Sep-05 19:00N 38°56' W 090°20'  
2017-Aug-29 18:15N 32°37' W 091°09'1 4.9
2017-Aug-29 18:00N 32°36' W 091°08'2 4.5
2017-Aug-29 17:30N 32°35' W 091°07'2 3.8
2017-Aug-29 16:56N 32°32' W 091°06'2 4.8
2017-Aug-29 16:28N 32°30' W 091°07'2 4.7
2017-Aug-29 16:00N 32°28' W 091°06'2 4.8
2017-Aug-29 15:30N 32°27' W 091°04'2 4.6
2017-Aug-29 15:00N 32°26' W 091°01'2 3.9
2017-Aug-29 14:30N 32°25' W 090°60'2 4.1
2017-Aug-29 14:00N 32°23' W 091°00'2 3.8
2017-Aug-29 13:30N 32°21' W 090°59'2 4.8
2017-Aug-29 13:00N 32°21' W 090°56'2 3.9
2017-Aug-29 12:30N 32°20' W 090°54'2 4.5
2017-Aug-29 12:00N 32°18' W 090°55'0 0.2
2017-Aug-29 11:30N 32°18' W 090°55'0 0.0
2017-Aug-29 11:00N 32°18' W 090°55'0 0.0
2017-Aug-29 10:30N 32°18' W 090°55'0 0.0
2017-Aug-29 10:00N 32°18' W 090°55'0 0.0
2017-Aug-29 09:30N 32°18' W 090°55'0 0.0
2017-Aug-29 09:00N 32°18' W 090°55'0 0.0
2017-Aug-29 08:30N 32°18' W 090°55'0 0.5
2017-Aug-29 08:00N 32°18' W 090°56'2 4.7
2017-Aug-29 07:30N 32°16' W 090°58'2 3.3
2017-Aug-29 07:00N 32°15' W 090°59'2 4.8
2017-Aug-29 06:30N 32°13' W 090°59'2 4.3
2017-Aug-29 06:00N 32°10' W 090°60'2 4.2
2017-Aug-29 05:30N 32°08' W 091°00'2 3.9
2017-Aug-29 05:00N 32°07' W 091°02'3 4.9
2017-Aug-29 04:25N 32°08' W 091°05'1 3.5
2017-Aug-29 04:00N 32°07' W 091°06'4 3.4
2017-Aug-29 02:43N 32°03' W 091°03'1 5.8
2017-Aug-29 02:29N 32°02' W 091°04'142 2.9
2017-Aug-27 01:33N 29°49' W 092°02'0 5.2
2017-Aug-27 01:30N 29°49' W 092°03'3 5.2
2017-Aug-27 01:00N 29°48' W 092°05'3 5.4
2017-Aug-27 00:30N 29°47' W 092°08'2 5.0
2017-Aug-27 00:00N 29°47' W 092°11'1 2.6
2017-Aug-26 23:30N 29°47' W 092°13'2 3.1
2017-Aug-26 23:01N 29°48' W 092°14'0 0.2
2017-Aug-26 22:30N 29°48' W 092°14'0 0.0
2017-Aug-26 22:00N 29°48' W 092°14'0 0.0
2017-Aug-26 21:30N 29°48' W 092°14'  

Dump ship's entire track history